sensor_id;sensor_type;location;lat;lon;timestamp;P1;durP1;ratioP1;P2;durP2;ratioP2
3911;SDS011;1971;51.778;10.330;2023-07-31T00:01:23;4.27;;;1.60;;
3911;SDS011;1971;51.778;10.330;2023-07-31T00:03:55;2.70;;;1.90;;
3911;SDS011;1971;51.778;10.330;2023-07-31T00:06:26;2.07;;;1.40;;
3911;SDS011;1971;51.778;10.330;2023-07-31T00:08:56;1.70;;;1.60;;
3911;SDS011;1971;51.778;10.330;2023-07-31T00:11:27;1.93;;;1.47;;
3911;SDS011;1971;51.778;10.330;2023-07-31T00:13:57;3.20;;;1.40;;
3911;SDS011;1971;51.778;10.330;2023-07-31T00:16:27;1.17;;;1.00;;
3911;SDS011;1971;51.778;10.330;2023-07-31T00:19:00;1.43;;;1.10;;
3911;SDS011;1971;51.778;10.330;2023-07-31T00:21:30;2.43;;;1.00;;
3911;SDS011;1971;51.778;10.330;2023-07-31T00:24:00;3.27;;;1.40;;
3911;SDS011;1971;51.778;10.330;2023-07-31T00:26:30;1.23;;;1.07;;
3911;SDS011;1971;51.778;10.330;2023-07-31T00:29:01;2.17;;;1.20;;
3911;SDS011;1971;51.778;10.330;2023-07-31T00:31:31;2.00;;;1.47;;
3911;SDS011;1971;51.778;10.330;2023-07-31T00:34:04;1.20;;;1.10;;
3911;SDS011;1971;51.778;10.330;2023-07-31T00:36:34;1.53;;;1.13;;
3911;SDS011;1971;51.778;10.330;2023-07-31T00:39:05;1.47;;;1.00;;
3911;SDS011;1971;51.778;10.330;2023-07-31T00:41:36;1.80;;;1.10;;
3911;SDS011;1971;51.778;10.330;2023-07-31T00:44:06;1.73;;;1.40;;
3911;SDS011;1971;51.778;10.330;2023-07-31T00:46:36;1.40;;;1.20;;
3911;SDS011;1971;51.778;10.330;2023-07-31T00:49:09;2.20;;;2.00;;
3911;SDS011;1971;51.778;10.330;2023-07-31T00:51:40;5.40;;;2.47;;
3911;SDS011;1971;51.778;10.330;2023-07-31T00:54:11;4.00;;;2.67;;
3911;SDS011;1971;51.778;10.330;2023-07-31T00:56:41;2.40;;;1.93;;
3911;SDS011;1971;51.778;10.330;2023-07-31T00:59:15;6.53;;;2.20;;
3911;SDS011;1971;51.778;10.330;2023-07-31T01:01:45;2.90;;;2.40;;
3911;SDS011;1971;51.778;10.330;2023-07-31T01:04:20;2.57;;;1.97;;
3911;SDS011;1971;51.778;10.330;2023-07-31T01:06:52;1.90;;;1.40;;
3911;SDS011;1971;51.778;10.330;2023-07-31T01:09:32;1.30;;;1.20;;
3911;SDS011;1971;51.778;10.330;2023-07-31T01:12:07;1.53;;;1.33;;
3911;SDS011;1971;51.778;10.330;2023-07-31T01:14:38;1.90;;;1.60;;
3911;SDS011;1971;51.778;10.330;2023-07-31T01:17:09;16.63;;;3.10;;
3911;SDS011;1971;51.778;10.330;2023-07-31T01:19:42;91.00;;;8.83;;
3911;SDS011;1971;51.778;10.330;2023-07-31T01:22:22;114.87;;;13.00;;
3911;SDS011;1971;51.778;10.330;2023-07-31T01:25:12;71.53;;;8.60;;
3911;SDS011;1971;51.778;10.330;2023-07-31T01:27:57;93.00;;;10.17;;
3911;SDS011;1971;51.778;10.330;2023-07-31T01:30:32;310.67;;;27.83;;
3911;SDS011;1971;51.778;10.330;2023-07-31T01:33:03;156.70;;;16.33;;
3911;SDS011;1971;51.778;10.330;2023-07-31T01:35:35;239.57;;;22.27;;
3911;SDS011;1971;51.778;10.330;2023-07-31T01:38:07;85.53;;;10.33;;
3911;SDS011;1971;51.778;10.330;2023-07-31T01:40:37;46.13;;;6.47;;
3911;SDS011;1971;51.778;10.330;2023-07-31T01:43:13;298.77;;;25.30;;
3911;SDS011;1971;51.778;10.330;2023-07-31T01:45:43;111.17;;;11.13;;
3911;SDS011;1971;51.778;10.330;2023-07-31T01:48:14;109.97;;;12.47;;
3911;SDS011;1971;51.778;10.330;2023-07-31T01:50:44;62.50;;;7.60;;
3911;SDS011;1971;51.778;10.330;2023-07-31T01:53:15;227.87;;;20.17;;
3911;SDS011;1971;51.778;10.330;2023-07-31T01:55:45;45.17;;;6.70;;
3911;SDS011;1971;51.778;10.330;2023-07-31T01:58:17;10.77;;;2.97;;
3911;SDS011;1971;51.778;10.330;2023-07-31T02:00:48;198.63;;;18.07;;
3911;SDS011;1971;51.778;10.330;2023-07-31T02:03:18;229.13;;;21.67;;
3911;SDS011;1971;51.778;10.330;2023-07-31T02:05:50;314.50;;;26.40;;
3911;SDS011;1971;51.778;10.330;2023-07-31T02:08:21;197.50;;;18.43;;
3911;SDS011;1971;51.778;10.330;2023-07-31T02:10:51;150.40;;;16.07;;
3911;SDS011;1971;51.778;10.330;2023-07-31T02:13:24;42.47;;;6.27;;
3911;SDS011;1971;51.778;10.330;2023-07-31T02:15:55;15.27;;;3.57;;
3911;SDS011;1971;51.778;10.330;2023-07-31T02:18:25;3.50;;;3.20;;
3911;SDS011;1971;51.778;10.330;2023-07-31T02:20:55;5.50;;;3.43;;
3911;SDS011;1971;51.778;10.330;2023-07-31T02:23:26;8.60;;;3.67;;
3911;SDS011;1971;51.778;10.330;2023-07-31T02:25:56;3.43;;;3.03;;
3911;SDS011;1971;51.778;10.330;2023-07-31T02:28:29;4.00;;;3.30;;
3911;SDS011;1971;51.778;10.330;2023-07-31T02:30:59;4.97;;;3.07;;
3911;SDS011;1971;51.778;10.330;2023-07-31T02:33:30;6.30;;;3.13;;
3911;SDS011;1971;51.778;10.330;2023-07-31T02:36:00;3.40;;;3.10;;
3911;SDS011;1971;51.778;10.330;2023-07-31T02:38:30;6.37;;;3.57;;
3911;SDS011;1971;51.778;10.330;2023-07-31T02:41:01;4.10;;;2.93;;
3911;SDS011;1971;51.778;10.330;2023-07-31T02:43:33;4.80;;;4.30;;
3911;SDS011;1971;51.778;10.330;2023-07-31T02:46:04;4.00;;;3.30;;
3911;SDS011;1971;51.778;10.330;2023-07-31T02:48:34;10.07;;;4.03;;
3911;SDS011;1971;51.778;10.330;2023-07-31T02:51:04;7.37;;;3.80;;
3911;SDS011;1971;51.778;10.330;2023-07-31T02:53:34;3.13;;;2.83;;
3911;SDS011;1971;51.778;10.330;2023-07-31T02:56:04;4.80;;;3.47;;
3911;SDS011;1971;51.778;10.330;2023-07-31T02:58:37;4.13;;;3.27;;
3911;SDS011;1971;51.778;10.330;2023-07-31T03:01:08;6.33;;;3.77;;
3911;SDS011;1971;51.778;10.330;2023-07-31T03:03:38;4.83;;;3.67;;
3911;SDS011;1971;51.778;10.330;2023-07-31T03:06:08;4.00;;;3.60;;
3911;SDS011;1971;51.778;10.330;2023-07-31T03:08:38;3.73;;;3.37;;
3911;SDS011;1971;51.778;10.330;2023-07-31T03:11:08;4.43;;;3.00;;
3911;SDS011;1971;51.778;10.330;2023-07-31T03:13:42;5.87;;;3.80;;
3911;SDS011;1971;51.778;10.330;2023-07-31T03:16:12;4.57;;;3.50;;
3911;SDS011;1971;51.778;10.330;2023-07-31T03:18:42;5.27;;;3.53;;
3911;SDS011;1971;51.778;10.330;2023-07-31T03:21:12;3.23;;;3.03;;
3911;SDS011;1971;51.778;10.330;2023-07-31T03:23:43;4.03;;;3.23;;
3911;SDS011;1971;51.778;10.330;2023-07-31T03:26:13;3.90;;;3.50;;
3911;SDS011;1971;51.778;10.330;2023-07-31T03:28:46;3.27;;;2.90;;
3911;SDS011;1971;51.778;10.330;2023-07-31T03:31:16;7.47;;;3.97;;
3911;SDS011;1971;51.778;10.330;2023-07-31T03:33:47;4.27;;;2.90;;
3911;SDS011;1971;51.778;10.330;2023-07-31T03:36:17;4.80;;;3.50;;
3911;SDS011;1971;51.778;10.330;2023-07-31T03:38:47;4.30;;;3.53;;
3911;SDS011;1971;51.778;10.330;2023-07-31T03:41:18;3.83;;;2.90;;
3911;SDS011;1971;51.778;10.330;2023-07-31T03:43:51;3.50;;;3.20;;
3911;SDS011;1971;51.778;10.330;2023-07-31T03:46:22;5.40;;;3.13;;
3911;SDS011;1971;51.778;10.330;2023-07-31T03:48:53;6.47;;;3.67;;
3911;SDS011;1971;51.778;10.330;2023-07-31T03:51:24;4.27;;;3.20;;
3911;SDS011;1971;51.778;10.330;2023-07-31T03:53:54;3.63;;;2.53;;
3911;SDS011;1971;51.778;10.330;2023-07-31T03:56:24;3.07;;;2.87;;
3911;SDS011;1971;51.778;10.330;2023-07-31T03:58:57;3.80;;;3.03;;
3911;SDS011;1971;51.778;10.330;2023-07-31T04:01:28;19.40;;;4.47;;
3911;SDS011;1971;51.778;10.330;2023-07-31T04:03:58;142.17;;;14.57;;
3911;SDS011;1971;51.778;10.330;2023-07-31T04:06:29;26.40;;;4.87;;
3911;SDS011;1971;51.778;10.330;2023-07-31T04:08:59;91.20;;;11.40;;
3911;SDS011;1971;51.778;10.330;2023-07-31T04:11:29;70.27;;;9.10;;
3911;SDS011;1971;51.778;10.330;2023-07-31T04:14:02;112.13;;;12.00;;
3911;SDS011;1971;51.778;10.330;2023-07-31T04:16:32;226.47;;;23.23;;
3911;SDS011;1971;51.778;10.330;2023-07-31T04:19:04;275.00;;;23.30;;
3911;SDS011;1971;51.778;10.330;2023-07-31T04:21:34;143.70;;;14.60;;
3911;SDS011;1971;51.778;10.330;2023-07-31T04:24:04;216.17;;;19.47;;
3911;SDS011;1971;51.778;10.330;2023-07-31T04:26:34;47.90;;;7.10;;
3911;SDS011;1971;51.778;10.330;2023-07-31T04:29:08;92.83;;;12.27;;
3911;SDS011;1971;51.778;10.330;2023-07-31T04:31:38;83.03;;;12.20;;
3911;SDS011;1971;51.778;10.330;2023-07-31T04:34:09;53.67;;;9.37;;
3911;SDS011;1971;51.778;10.330;2023-07-31T04:36:39;17.33;;;5.00;;
3911;SDS011;1971;51.778;10.330;2023-07-31T04:39:10;23.33;;;6.23;;
3911;SDS011;1971;51.778;10.330;2023-07-31T04:41:40;58.77;;;8.33;;
3911;SDS011;1971;51.778;10.330;2023-07-31T04:44:13;75.53;;;10.57;;
3911;SDS011;1971;51.778;10.330;2023-07-31T04:46:43;4.70;;;4.30;;
3911;SDS011;1971;51.778;10.330;2023-07-31T04:49:14;4.97;;;4.17;;
3911;SDS011;1971;51.778;10.330;2023-07-31T04:51:44;5.30;;;4.80;;
3911;SDS011;1971;51.778;10.330;2023-07-31T04:54:15;5.87;;;4.97;;
3911;SDS011;1971;51.778;10.330;2023-07-31T04:56:45;4.93;;;4.53;;
3911;SDS011;1971;51.778;10.330;2023-07-31T04:59:18;8.10;;;5.13;;
3911;SDS011;1971;51.778;10.330;2023-07-31T05:01:48;8.43;;;5.40;;
3911;SDS011;1971;51.778;10.330;2023-07-31T05:04:19;5.17;;;4.63;;
3911;SDS011;1971;51.778;10.330;2023-07-31T05:06:49;7.93;;;5.13;;
3911;SDS011;1971;51.778;10.330;2023-07-31T05:09:19;6.47;;;5.90;;
3911;SDS011;1971;51.778;10.330;2023-07-31T05:11:49;5.63;;;5.00;;
3911;SDS011;1971;51.778;10.330;2023-07-31T05:14:22;6.67;;;5.60;;
3911;SDS011;1971;51.778;10.330;2023-07-31T05:16:53;6.47;;;5.33;;
3911;SDS011;1971;51.778;10.330;2023-07-31T05:19:23;13.10;;;5.37;;
3911;SDS011;1971;51.778;10.330;2023-07-31T05:21:53;5.97;;;5.10;;
3911;SDS011;1971;51.778;10.330;2023-07-31T05:24:23;5.43;;;5.03;;
3911;SDS011;1971;51.778;10.330;2023-07-31T05:26:54;5.97;;;4.60;;
3911;SDS011;1971;51.778;10.330;2023-07-31T05:29:27;5.57;;;5.00;;
3911;SDS011;1971;51.778;10.330;2023-07-31T05:31:57;7.40;;;4.70;;
3911;SDS011;1971;51.778;10.330;2023-07-31T05:34:27;7.30;;;4.67;;
3911;SDS011;1971;51.778;10.330;2023-07-31T05:36:58;5.67;;;5.07;;
3911;SDS011;1971;51.778;10.330;2023-07-31T05:39:28;4.87;;;4.47;;
3911;SDS011;1971;51.778;10.330;2023-07-31T05:41:58;4.97;;;4.57;;
3911;SDS011;1971;51.778;10.330;2023-07-31T05:44:31;5.00;;;4.50;;
3911;SDS011;1971;51.778;10.330;2023-07-31T05:47:01;5.50;;;4.90;;
3911;SDS011;1971;51.778;10.330;2023-07-31T05:49:31;5.53;;;4.67;;
3911;SDS011;1971;51.778;10.330;2023-07-31T05:52:02;4.63;;;4.23;;
3911;SDS011;1971;51.778;10.330;2023-07-31T05:54:32;4.63;;;4.20;;
3911;SDS011;1971;51.778;10.330;2023-07-31T05:57:03;6.67;;;5.20;;
3911;SDS011;1971;51.778;10.330;2023-07-31T05:59:36;5.23;;;4.70;;
3911;SDS011;1971;51.778;10.330;2023-07-31T06:02:07;5.30;;;4.03;;
3911;SDS011;1971;51.778;10.330;2023-07-31T06:04:37;4.73;;;4.27;;
3911;SDS011;1971;51.778;10.330;2023-07-31T06:07:08;4.90;;;4.50;;
3911;SDS011;1971;51.778;10.330;2023-07-31T06:09:38;6.00;;;4.23;;
3911;SDS011;1971;51.778;10.330;2023-07-31T06:12:09;5.13;;;4.63;;
3911;SDS011;1971;51.778;10.330;2023-07-31T06:14:42;4.47;;;4.07;;
3911;SDS011;1971;51.778;10.330;2023-07-31T06:17:12;5.30;;;4.23;;
3911;SDS011;1971;51.778;10.330;2023-07-31T06:19:43;9.10;;;4.77;;
3911;SDS011;1971;51.778;10.330;2023-07-31T06:22:13;4.93;;;4.33;;
3911;SDS011;1971;51.778;10.330;2023-07-31T06:24:44;5.30;;;4.60;;
3911;SDS011;1971;51.778;10.330;2023-07-31T06:27:14;5.50;;;4.60;;
3911;SDS011;1971;51.778;10.330;2023-07-31T06:29:47;7.03;;;4.70;;
3911;SDS011;1971;51.778;10.330;2023-07-31T06:32:18;4.60;;;3.97;;
3911;SDS011;1971;51.778;10.330;2023-07-31T06:34:48;5.73;;;5.23;;
3911;SDS011;1971;51.778;10.330;2023-07-31T06:37:19;6.10;;;4.67;;
3911;SDS011;1971;51.778;10.330;2023-07-31T06:39:49;4.50;;;3.63;;
3911;SDS011;1971;51.778;10.330;2023-07-31T06:42:19;8.27;;;4.60;;
3911;SDS011;1971;51.778;10.330;2023-07-31T06:44:52;4.53;;;3.97;;
3911;SDS011;1971;51.778;10.330;2023-07-31T06:47:22;7.47;;;3.80;;
3911;SDS011;1971;51.778;10.330;2023-07-31T06:49:53;4.07;;;3.70;;
3911;SDS011;1971;51.778;10.330;2023-07-31T06:52:23;5.00;;;4.20;;
3911;SDS011;1971;51.778;10.330;2023-07-31T06:55:03;3.90;;;3.40;;
3911;SDS011;1971;51.778;10.330;2023-07-31T06:57:46;9.83;;;3.80;;
3911;SDS011;1971;51.778;10.330;2023-07-31T07:00:19;5.20;;;3.80;;
3911;SDS011;1971;51.778;10.330;2023-07-31T07:02:50;3.70;;;3.27;;
3911;SDS011;1971;51.778;10.330;2023-07-31T07:05:21;6.60;;;4.97;;
3911;SDS011;1971;51.778;10.330;2023-07-31T07:07:51;3.97;;;3.37;;
3911;SDS011;1971;51.778;10.330;2023-07-31T07:10:21;4.97;;;3.30;;
3911;SDS011;1971;51.778;10.330;2023-07-31T07:12:52;4.33;;;3.37;;
3911;SDS011;1971;51.778;10.330;2023-07-31T07:15:26;5.53;;;3.40;;
3911;SDS011;1971;51.778;10.330;2023-07-31T07:17:57;5.00;;;3.63;;
3911;SDS011;1971;51.778;10.330;2023-07-31T07:20:27;3.60;;;3.30;;
3911;SDS011;1971;51.778;10.330;2023-07-31T07:22:57;4.30;;;3.30;;
3911;SDS011;1971;51.778;10.330;2023-07-31T07:25:28;5.13;;;3.30;;
3911;SDS011;1971;51.778;10.330;2023-07-31T07:27:58;3.37;;;3.07;;
3911;SDS011;1971;51.778;10.330;2023-07-31T07:30:31;3.63;;;3.13;;
3911;SDS011;1971;51.778;10.330;2023-07-31T07:33:01;4.30;;;3.67;;
3911;SDS011;1971;51.778;10.330;2023-07-31T07:35:32;6.10;;;3.57;;
3911;SDS011;1971;51.778;10.330;2023-07-31T07:38:03;4.40;;;3.87;;
3911;SDS011;1971;51.778;10.330;2023-07-31T07:40:37;4.43;;;3.20;;
3911;SDS011;1971;51.778;10.330;2023-07-31T07:43:08;3.33;;;3.00;;
3911;SDS011;1971;51.778;10.330;2023-07-31T07:45:41;5.37;;;3.50;;
3911;SDS011;1971;51.778;10.330;2023-07-31T07:48:11;4.97;;;3.67;;
3911;SDS011;1971;51.778;10.330;2023-07-31T07:50:41;3.87;;;3.57;;
3911;SDS011;1971;51.778;10.330;2023-07-31T07:53:11;4.37;;;3.50;;
3911;SDS011;1971;51.778;10.330;2023-07-31T07:55:41;6.70;;;4.40;;
3911;SDS011;1971;51.778;10.330;2023-07-31T07:58:12;9.27;;;3.23;;
3911;SDS011;1971;51.778;10.330;2023-07-31T08:00:48;5.43;;;3.83;;
3911;SDS011;1971;51.778;10.330;2023-07-31T08:03:19;11.67;;;3.60;;
3911;SDS011;1971;51.778;10.330;2023-07-31T08:05:50;4.07;;;3.40;;
3911;SDS011;1971;51.778;10.330;2023-07-31T08:08:20;3.60;;;3.10;;
3911;SDS011;1971;51.778;10.330;2023-07-31T08:10:50;3.10;;;2.60;;
3911;SDS011;1971;51.778;10.330;2023-07-31T08:13:20;3.23;;;2.93;;
3911;SDS011;1971;51.778;10.330;2023-07-31T08:15:53;4.03;;;3.17;;
3911;SDS011;1971;51.778;10.330;2023-07-31T08:18:23;3.67;;;3.27;;
3911;SDS011;1971;51.778;10.330;2023-07-31T08:20:54;3.20;;;2.87;;
3911;SDS011;1971;51.778;10.330;2023-07-31T08:23:24;5.43;;;3.00;;
3911;SDS011;1971;51.778;10.330;2023-07-31T08:25:54;5.37;;;3.70;;
3911;SDS011;1971;51.778;10.330;2023-07-31T08:28:24;3.57;;;3.20;;
3911;SDS011;1971;51.778;10.330;2023-07-31T08:30:57;3.63;;;3.33;;
3911;SDS011;1971;51.778;10.330;2023-07-31T08:33:28;3.43;;;3.10;;
3911;SDS011;1971;51.778;10.330;2023-07-31T08:35:58;6.00;;;4.00;;
3911;SDS011;1971;51.778;10.330;2023-07-31T08:38:29;3.63;;;3.33;;
3911;SDS011;1971;51.778;10.330;2023-07-31T08:40:59;4.00;;;3.50;;
3911;SDS011;1971;51.778;10.330;2023-07-31T08:43:29;3.90;;;3.27;;
3911;SDS011;1971;51.778;10.330;2023-07-31T08:46:03;6.33;;;4.40;;
3911;SDS011;1971;51.778;10.330;2023-07-31T08:48:35;3.33;;;2.40;;
3911;SDS011;1971;51.778;10.330;2023-07-31T08:51:07;3.47;;;3.17;;
3911;SDS011;1971;51.778;10.330;2023-07-31T08:53:37;3.03;;;2.80;;
3911;SDS011;1971;51.778;10.330;2023-07-31T08:56:07;3.17;;;2.87;;
3911;SDS011;1971;51.778;10.330;2023-07-31T08:58:38;3.20;;;2.40;;
3911;SDS011;1971;51.778;10.330;2023-07-31T09:01:12;4.13;;;2.90;;
3911;SDS011;1971;51.778;10.330;2023-07-31T09:03:43;3.00;;;2.77;;
3911;SDS011;1971;51.778;10.330;2023-07-31T09:06:15;2.97;;;2.67;;
3911;SDS011;1971;51.778;10.330;2023-07-31T09:08:47;2.80;;;2.60;;
3911;SDS011;1971;51.778;10.330;2023-07-31T09:11:17;3.13;;;2.90;;
3911;SDS011;1971;51.778;10.330;2023-07-31T09:13:47;4.10;;;3.70;;
3911;SDS011;1971;51.778;10.330;2023-07-31T09:16:21;4.63;;;3.20;;
3911;SDS011;1971;51.778;10.330;2023-07-31T09:18:58;4.20;;;3.23;;
3911;SDS011;1971;51.778;10.330;2023-07-31T09:21:28;5.13;;;3.50;;
3911;SDS011;1971;51.778;10.330;2023-07-31T09:23:59;4.33;;;3.93;;
3911;SDS011;1971;51.778;10.330;2023-07-31T09:26:30;4.57;;;4.17;;
3911;SDS011;1971;51.778;10.330;2023-07-31T09:29:03;6.47;;;4.37;;
3911;SDS011;1971;51.778;10.330;2023-07-31T09:31:41;4.40;;;4.00;;
3911;SDS011;1971;51.778;10.330;2023-07-31T09:34:12;4.80;;;4.40;;
3911;SDS011;1971;51.778;10.330;2023-07-31T09:36:43;4.47;;;3.97;;
3911;SDS011;1971;51.778;10.330;2023-07-31T09:39:14;4.67;;;4.23;;
3911;SDS011;1971;51.778;10.330;2023-07-31T09:41:53;5.83;;;4.40;;
3911;SDS011;1971;51.778;10.330;2023-07-31T09:44:37;5.10;;;4.60;;
3911;SDS011;1971;51.778;10.330;2023-07-31T09:47:23;4.33;;;3.70;;
3911;SDS011;1971;51.778;10.330;2023-07-31T09:49:53;3.93;;;3.57;;
3911;SDS011;1971;51.778;10.330;2023-07-31T09:52:25;6.77;;;5.00;;
3911;SDS011;1971;51.778;10.330;2023-07-31T09:54:56;4.10;;;3.70;;
3911;SDS011;1971;51.778;10.330;2023-07-31T09:57:26;4.27;;;3.87;;
3911;SDS011;1971;51.778;10.330;2023-07-31T09:59:57;5.10;;;4.23;;
3911;SDS011;1971;51.778;10.330;2023-07-31T10:02:39;4.50;;;4.10;;
3911;SDS011;1971;51.778;10.330;2023-07-31T10:05:10;5.47;;;4.57;;
3911;SDS011;1971;51.778;10.330;2023-07-31T10:07:45;4.47;;;4.00;;
3911;SDS011;1971;51.778;10.330;2023-07-31T10:10:21;4.50;;;4.10;;
3911;SDS011;1971;51.778;10.330;2023-07-31T10:12:52;6.30;;;4.33;;
3911;SDS011;1971;51.778;10.330;2023-07-31T10:15:23;4.73;;;4.20;;
3911;SDS011;1971;51.778;10.330;2023-07-31T10:17:57;4.67;;;4.27;;
3911;SDS011;1971;51.778;10.330;2023-07-31T10:20:28;4.43;;;4.03;;
3911;SDS011;1971;51.778;10.330;2023-07-31T10:22:59;4.43;;;4.03;;
3911;SDS011;1971;51.778;10.330;2023-07-31T10:25:30;4.60;;;4.20;;
3911;SDS011;1971;51.778;10.330;2023-07-31T10:28:02;4.93;;;3.93;;
3911;SDS011;1971;51.778;10.330;2023-07-31T10:30:35;3.47;;;3.17;;
3911;SDS011;1971;51.778;10.330;2023-07-31T10:33:10;3.53;;;3.20;;
3911;SDS011;1971;51.778;10.330;2023-07-31T10:35:41;4.43;;;3.80;;
3911;SDS011;1971;51.778;10.330;2023-07-31T10:38:11;3.53;;;3.20;;
3911;SDS011;1971;51.778;10.330;2023-07-31T10:40:42;5.20;;;3.93;;
3911;SDS011;1971;51.778;10.330;2023-07-31T10:43:23;5.60;;;3.17;;
3911;SDS011;1971;51.778;10.330;2023-07-31T10:45:54;4.07;;;3.67;;
3911;SDS011;1971;51.778;10.330;2023-07-31T10:48:27;3.57;;;3.27;;
3911;SDS011;1971;51.778;10.330;2023-07-31T10:51:06;3.40;;;3.20;;
3911;SDS011;1971;51.778;10.330;2023-07-31T10:53:39;3.63;;;3.33;;
3911;SDS011;1971;51.778;10.330;2023-07-31T10:56:09;3.87;;;3.43;;
3911;SDS011;1971;51.778;10.330;2023-07-31T10:58:45;4.10;;;3.40;;
3911;SDS011;1971;51.778;10.330;2023-07-31T11:04:24;3.80;;;3.60;;
3911;SDS011;1971;51.778;10.330;2023-07-31T11:06:57;3.80;;;3.50;;
3911;SDS011;1971;51.778;10.330;2023-07-31T11:09:30;4.03;;;3.37;;
3911;SDS011;1971;51.778;10.330;2023-07-31T11:12:01;3.50;;;3.20;;
3911;SDS011;1971;51.778;10.330;2023-07-31T11:14:31;4.27;;;3.90;;
3911;SDS011;1971;51.778;10.330;2023-07-31T11:17:05;5.67;;;3.17;;
3911;SDS011;1971;51.778;10.330;2023-07-31T11:19:38;3.87;;;3.47;;
3911;SDS011;1971;51.778;10.330;2023-07-31T11:22:09;3.70;;;3.40;;
3911;SDS011;1971;51.778;10.330;2023-07-31T11:24:40;4.23;;;3.83;;
3911;SDS011;1971;51.778;10.330;2023-07-31T11:27:11;4.00;;;3.57;;
3911;SDS011;1971;51.778;10.330;2023-07-31T11:29:42;3.30;;;3.10;;
3911;SDS011;1971;51.778;10.330;2023-07-31T11:32:15;3.70;;;3.40;;
3911;SDS011;1971;51.778;10.330;2023-07-31T11:34:55;3.63;;;3.33;;
3911;SDS011;1971;51.778;10.330;2023-07-31T11:37:28;3.63;;;3.33;;
3911;SDS011;1971;51.778;10.330;2023-07-31T11:40:09;5.03;;;3.20;;
3911;SDS011;1971;51.778;10.330;2023-07-31T11:42:40;3.53;;;3.23;;
3911;SDS011;1971;51.778;10.330;2023-07-31T11:45:11;4.60;;;4.00;;
3911;SDS011;1971;51.778;10.330;2023-07-31T11:47:41;3.13;;;2.93;;
3911;SDS011;1971;51.778;10.330;2023-07-31T11:50:15;4.00;;;3.70;;
3911;SDS011;1971;51.778;10.330;2023-07-31T11:52:45;4.80;;;3.33;;
3911;SDS011;1971;51.778;10.330;2023-07-31T11:55:17;5.33;;;3.83;;
3911;SDS011;1971;51.778;10.330;2023-07-31T11:57:48;4.40;;;3.90;;
3911;SDS011;1971;51.778;10.330;2023-07-31T12:00:19;4.50;;;4.10;;
3911;SDS011;1971;51.778;10.330;2023-07-31T12:02:50;3.90;;;3.60;;
3911;SDS011;1971;51.778;10.330;2023-07-31T12:05:24;4.00;;;3.70;;
3911;SDS011;1971;51.778;10.330;2023-07-31T12:07:54;3.53;;;3.17;;
3911;SDS011;1971;51.778;10.330;2023-07-31T12:10:25;4.33;;;3.93;;
3911;SDS011;1971;51.778;10.330;2023-07-31T12:12:58;4.00;;;3.30;;
3911;SDS011;1971;51.778;10.330;2023-07-31T12:15:30;4.30;;;3.90;;
3911;SDS011;1971;51.778;10.330;2023-07-31T12:18:06;3.93;;;3.63;;
3911;SDS011;1971;51.778;10.330;2023-07-31T12:20:44;5.10;;;3.80;;
3911;SDS011;1971;51.778;10.330;2023-07-31T12:23:16;3.83;;;3.33;;
3911;SDS011;1971;51.778;10.330;2023-07-31T12:25:59;3.90;;;3.10;;
3911;SDS011;1971;51.778;10.330;2023-07-31T12:28:30;4.33;;;3.33;;
3911;SDS011;1971;51.778;10.330;2023-07-31T12:31:05;3.40;;;3.10;;
3911;SDS011;1971;51.778;10.330;2023-07-31T12:33:38;4.23;;;3.83;;
3911;SDS011;1971;51.778;10.330;2023-07-31T12:36:12;3.90;;;3.60;;
3911;SDS011;1971;51.778;10.330;2023-07-31T12:38:43;4.07;;;3.63;;
3911;SDS011;1971;51.778;10.330;2023-07-31T12:41:14;3.73;;;3.20;;
3911;SDS011;1971;51.778;10.330;2023-07-31T12:43:44;5.00;;;3.90;;
3911;SDS011;1971;51.778;10.330;2023-07-31T12:46:15;4.27;;;3.87;;
3911;SDS011;1971;51.778;10.330;2023-07-31T12:48:46;4.50;;;3.57;;
3911;SDS011;1971;51.778;10.330;2023-07-31T12:51:18;3.10;;;2.80;;
3911;SDS011;1971;51.778;10.330;2023-07-31T12:53:48;3.00;;;2.63;;
3911;SDS011;1971;51.778;10.330;2023-07-31T12:56:19;3.53;;;2.47;;
3911;SDS011;1971;51.778;10.330;2023-07-31T12:58:49;2.40;;;2.13;;
3911;SDS011;1971;51.778;10.330;2023-07-31T13:01:19;3.60;;;3.30;;
3911;SDS011;1971;51.778;10.330;2023-07-31T13:03:50;3.03;;;2.70;;
3911;SDS011;1971;51.778;10.330;2023-07-31T13:06:22;3.00;;;2.70;;
3911;SDS011;1971;51.778;10.330;2023-07-31T13:08:53;2.70;;;2.40;;
3911;SDS011;1971;51.778;10.330;2023-07-31T13:11:23;3.27;;;2.63;;
3911;SDS011;1971;51.778;10.330;2023-07-31T13:13:53;2.70;;;2.50;;
3911;SDS011;1971;51.778;10.330;2023-07-31T13:16:23;6.63;;;3.00;;
3911;SDS011;1971;51.778;10.330;2023-07-31T13:18:54;2.50;;;2.30;;
3911;SDS011;1971;51.778;10.330;2023-07-31T13:21:26;2.00;;;1.90;;
3911;SDS011;1971;51.778;10.330;2023-07-31T13:23:57;2.80;;;2.20;;
3911;SDS011;1971;51.778;10.330;2023-07-31T13:26:27;3.10;;;2.30;;
3911;SDS011;1971;51.778;10.330;2023-07-31T13:28:57;3.93;;;3.03;;
3911;SDS011;1971;51.778;10.330;2023-07-31T13:31:28;2.53;;;2.17;;
3911;SDS011;1971;51.778;10.330;2023-07-31T13:33:58;2.53;;;2.33;;
3911;SDS011;1971;51.778;10.330;2023-07-31T13:36:31;4.40;;;3.00;;
3911;SDS011;1971;51.778;10.330;2023-07-31T13:39:04;4.50;;;3.10;;
3911;SDS011;1971;51.778;10.330;2023-07-31T13:41:35;4.43;;;2.63;;
3911;SDS011;1971;51.778;10.330;2023-07-31T13:44:05;3.43;;;2.80;;
3911;SDS011;1971;51.778;10.330;2023-07-31T13:46:35;3.20;;;2.33;;
3911;SDS011;1971;51.778;10.330;2023-07-31T13:49:06;2.60;;;2.40;;
3911;SDS011;1971;51.778;10.330;2023-07-31T13:51:38;3.23;;;2.87;;
3911;SDS011;1971;51.778;10.330;2023-07-31T13:54:08;4.10;;;2.87;;
3911;SDS011;1971;51.778;10.330;2023-07-31T13:56:40;2.57;;;2.03;;
3911;SDS011;1971;51.778;10.330;2023-07-31T13:59:10;3.43;;;2.87;;
3911;SDS011;1971;51.778;10.330;2023-07-31T14:01:42;4.10;;;3.17;;
3911;SDS011;1971;51.778;10.330;2023-07-31T14:04:13;3.33;;;3.13;;
3911;SDS011;1971;51.778;10.330;2023-07-31T14:06:46;3.13;;;2.80;;
3911;SDS011;1971;51.778;10.330;2023-07-31T14:09:17;3.10;;;2.83;;
3911;SDS011;1971;51.778;10.330;2023-07-31T14:11:47;3.47;;;3.17;;
3911;SDS011;1971;51.778;10.330;2023-07-31T14:14:18;3.50;;;3.20;;
3911;SDS011;1971;51.778;10.330;2023-07-31T14:16:48;3.10;;;2.80;;
3911;SDS011;1971;51.778;10.330;2023-07-31T14:19:18;5.00;;;3.23;;
3911;SDS011;1971;51.778;10.330;2023-07-31T14:21:52;4.50;;;3.97;;
3911;SDS011;1971;51.778;10.330;2023-07-31T14:24:37;4.00;;;3.60;;
3911;SDS011;1971;51.778;10.330;2023-07-31T14:27:07;4.00;;;3.70;;
3911;SDS011;1971;51.778;10.330;2023-07-31T14:29:38;6.40;;;3.17;;
3911;SDS011;1971;51.778;10.330;2023-07-31T14:32:08;5.30;;;4.10;;
3911;SDS011;1971;51.778;10.330;2023-07-31T14:34:38;3.70;;;3.40;;
3911;SDS011;1971;51.778;10.330;2023-07-31T14:37:11;4.17;;;3.37;;
3911;SDS011;1971;51.778;10.330;2023-07-31T14:39:41;3.63;;;3.33;;
3911;SDS011;1971;51.778;10.330;2023-07-31T14:42:11;4.90;;;3.80;;
3911;SDS011;1971;51.778;10.330;2023-07-31T14:44:43;5.13;;;4.10;;
3911;SDS011;1971;51.778;10.330;2023-07-31T14:47:14;5.00;;;3.80;;
3911;SDS011;1971;51.778;10.330;2023-07-31T14:49:44;4.63;;;3.13;;
3911;SDS011;1971;51.778;10.330;2023-07-31T14:52:17;3.83;;;3.53;;
3911;SDS011;1971;51.778;10.330;2023-07-31T14:54:47;3.80;;;3.40;;
3911;SDS011;1971;51.778;10.330;2023-07-31T14:57:17;3.63;;;3.33;;
3911;SDS011;1971;51.778;10.330;2023-07-31T14:59:50;3.60;;;3.20;;
3911;SDS011;1971;51.778;10.330;2023-07-31T15:02:20;3.70;;;3.40;;
3911;SDS011;1971;51.778;10.330;2023-07-31T15:04:50;5.77;;;3.20;;
3911;SDS011;1971;51.778;10.330;2023-07-31T15:07:23;5.43;;;4.00;;
3911;SDS011;1971;51.778;10.330;2023-07-31T15:09:53;6.10;;;2.90;;
3911;SDS011;1971;51.778;10.330;2023-07-31T15:12:23;3.97;;;2.90;;
3911;SDS011;1971;51.778;10.330;2023-07-31T15:14:54;4.40;;;3.50;;
3911;SDS011;1971;51.778;10.330;2023-07-31T15:17:25;5.67;;;3.50;;
3911;SDS011;1971;51.778;10.330;2023-07-31T15:19:56;4.03;;;3.50;;
3911;SDS011;1971;51.778;10.330;2023-07-31T15:22:32;3.23;;;2.90;;
3911;SDS011;1971;51.778;10.330;2023-07-31T15:25:02;3.33;;;2.90;;
3911;SDS011;1971;51.778;10.330;2023-07-31T15:27:33;6.20;;;3.40;;